Time;durP1;ratioP1;P1;durP2;ratioP2;P2;SDS_P1;SDS_P2;PMS_P1;PMS_P2;Temp;Humidity;BMP_temperature;BMP_pressure;BME280_temperature;BME280_humidity;BME280_pressure;Samples;Min_cycle;Max_cycle;Signal;HPM_P1;HPM_P2
2021/08/31 00:00:24;;;;;;;15.40;6.88;;;14.40;99.90;;;12.99;100.00;101857.72;5061239;28;20035;-78
2021/08/31 00:02:50;;;;;;;15.02;7.38;;;14.40;99.90;;;13.01;100.00;101864.66;5019582;28;20375;-79
2021/08/31 00:05:17;;;;;;;13.40;7.20;;;14.30;99.90;;;12.95;100.00;101848.16;5062456;28;20031;-79
2021/08/31 00:07:43;;;;;;;21.00;7.88;;;14.30;99.90;;;12.97;100.00;101864.84;5064147;28;20433;-79
2021/08/31 00:10:11;;;;;;;12.63;6.75;;;14.40;99.90;;;13.04;100.00;101866.31;5051339;28;20028;-79
2021/08/31 00:12:41;;;;;;;16.83;7.38;;;14.40;99.90;;;12.96;100.00;101856.06;5062086;28;20074;-79
2021/08/31 00:15:10;;;;;;;13.32;6.78;;;14.30;99.90;;;12.87;100.00;101840.53;5046577;28;20093;-79
2021/08/31 00:17:51;;;;;;;18.00;7.47;;;14.20;99.90;;;12.86;100.00;101841.47;5069336;27;20388;-79
2021/08/31 00:20:17;;;;;;;15.10;7.07;;;14.20;99.90;;;12.84;100.00;101838.00;5031316;28;20500;-79
2021/08/31 00:22:43;;;;;;;15.52;7.50;;;14.20;99.90;;;12.82;100.00;101840.69;5039028;28;20124;-79
2021/08/31 00:25:10;;;;;;;17.77;7.20;;;14.20;99.90;;;12.83;100.00;101845.09;5046871;28;20024;-79
2021/08/31 00:27:36;;;;;;;14.00;6.55;;;14.30;99.90;;;12.87;100.00;101851.97;5057804;28;20029;-79
2021/08/31 00:30:05;;;;;;;14.02;6.80;;;14.20;99.90;;;12.82;100.00;101839.84;5050293;28;20012;-79
2021/08/31 00:32:33;;;;;;;12.80;6.50;;;14.20;99.90;;;12.86;100.00;101847.59;5058966;28;20135;-79
2021/08/31 00:34:59;;;;;;;16.73;6.85;;;14.30;99.90;;;12.96;100.00;101857.81;5052111;28;20021;-79
2021/08/31 00:37:26;;;;;;;14.98;6.72;;;13.40;99.90;;;12.90;100.00;101843.91;5058114;28;20041;-79
2021/08/31 00:39:52;;;;;;;11.00;6.50;;;14.20;99.90;;;12.87;100.00;101829.94;5035554;28;20042;-79
2021/08/31 00:42:17;;;;;;;13.82;6.63;;;14.20;99.90;;;12.83;100.00;101823.94;5039196;28;20024;-79
2021/08/31 00:44:44;;;;;;;17.00;7.35;;;14.20;99.90;;;12.80;100.00;101842.53;5059907;28;20625;-79
2021/08/31 00:47:10;;;;;;;14.27;7.15;;;14.20;99.90;;;12.79;100.00;101830.25;5048605;28;20035;-79
2021/08/31 00:49:36;;;;;;;12.73;7.07;;;14.20;99.90;;;12.85;100.00;101858.22;5057187;28;20029;-79
2021/08/31 00:52:04;;;;;;;11.15;6.22;;;14.20;99.90;;;12.88;100.00;101861.63;5055596;28;20086;-79
2021/08/31 00:54:31;;;;;;;12.43;6.55;;;14.20;99.90;;;12.87;100.00;101843.16;5056023;28;20541;-79
2021/08/31 00:57:00;;;;;;;10.45;6.53;;;14.30;99.90;;;12.95;100.00;101856.09;5059693;28;20403;-79
2021/08/31 00:59:26;;;;;;;11.80;6.35;;;14.30;99.90;;;12.94;100.00;101860.53;5058701;28;20541;-79
2021/08/31 01:01:54;;;;;;;13.65;6.10;;;14.30;99.90;;;12.96;100.00;101839.31;5054410;28;20024;-79
2021/08/31 01:04:29;;;;;;;17.23;6.78;;;14.30;99.90;;;13.01;100.00;101851.44;5051698;28;20055;-79
2021/08/31 01:06:56;;;;;;;13.77;6.80;;;14.30;99.90;;;12.91;100.00;101852.72;5040445;28;20048;-79
2021/08/31 01:09:27;;;;;;;16.50;6.97;;;14.20;99.90;;;12.81;100.00;101836.34;5046290;28;20028;-79
2021/08/31 01:11:56;;;;;;;12.52;6.53;;;14.20;99.90;;;12.78;100.00;101838.25;5032876;28;20028;-79
2021/08/31 01:14:24;;;;;;;16.30;6.47;;;14.10;99.90;;;12.76;100.00;101835.66;5042671;28;20040;-79
2021/08/31 01:16:51;;;;;;;13.73;6.85;;;14.10;99.90;;;12.79;100.00;101835.53;5057021;28;21344;-79
2021/08/31 01:19:25;;;;;;;15.32;6.85;;;14.20;99.90;;;12.80;100.00;101833.75;5040325;28;20017;-79
2021/08/31 01:21:52;;;;;;;15.23;6.70;;;14.10;99.90;;;12.79;100.00;101837.34;5057279;28;20129;-79
2021/08/31 01:24:18;;;;;;;13.48;6.80;;;14.10;99.90;;;12.79;100.00;101834.69;5058079;28;20058;-79
2021/08/31 01:26:46;;;;;;;11.70;6.65;;;14.20;99.90;;;12.76;100.00;101832.16;5059277;28;20024;-79
2021/08/31 01:29:12;;;;;;;16.40;7.10;;;14.20;99.90;;;12.81;100.00;101833.72;5052573;28;20480;-79
2021/08/31 01:31:38;;;;;;;16.00;6.50;;;14.20;99.90;;;12.85;100.00;101845.91;5052751;28;20050;-79
2021/08/31 01:34:04;;;;;;;10.55;6.57;;;14.20;99.90;;;12.87;100.00;101854.63;5044638;28;20044;-79
2021/08/31 01:36:30;;;;;;;11.88;6.15;;;14.30;99.90;;;12.94;100.00;101855.25;5030605;28;20353;-79
2021/08/31 01:38:57;;;;;;;13.55;5.88;;;14.30;99.90;;;12.96;100.00;101850.75;5053649;28;20132;-79
2021/08/31 01:41:26;;;;;;;9.98;6.63;;;14.40;99.90;;;12.94;100.00;101842.03;5017375;28;20035;-79
2021/08/31 01:43:52;;;;;;;20.45;7.43;;;14.30;99.90;;;12.89;100.00;101830.75;5033707;28;20037;-79
2021/08/31 01:46:18;;;;;;;20.35;6.65;;;14.40;99.90;;;13.00;100.00;101847.09;5036608;28;20086;-80
2021/08/31 01:48:44;;;;;;;11.18;5.97;;;14.40;99.90;;;12.99;100.00;101837.41;5009582;28;20307;-79
2021/08/31 01:51:10;;;;;;;13.32;6.35;;;14.40;99.90;;;13.01;100.00;101838.22;5048098;28;20029;-79
2021/08/31 01:53:37;;;;;;;15.15;6.38;;;14.40;99.90;;;13.00;100.00;101841.78;5011473;28;20051;-79
2021/08/31 01:56:04;;;;;;;15.35;6.13;;;14.40;99.90;;;13.06;100.00;101856.53;4998974;28;20082;-79
2021/08/31 01:58:31;;;;;;;11.95;5.20;;;14.40;99.90;;;13.02;100.00;101879.59;5044467;28;20021;-79
2021/08/31 02:00:57;;;;;;;13.00;6.03;;;14.40;99.90;;;13.09;100.00;101853.78;5042207;28;20040;-79
2021/08/31 02:03:23;;;;;;;11.05;6.22;;;;;;;13.11;100.00;101851.97;5040812;28;20028;-79
2021/08/31 02:05:49;;;;;;;8.68;5.68;;;14.40;99.90;;;13.02;100.00;101844.34;5033803;28;20024;-79
2021/08/31 02:08:16;;;;;;;16.70;6.22;;;;;;;13.06;100.00;101840.69;5019308;28;20028;-79
2021/08/31 02:10:43;;;;;;;10.40;5.85;;;;;;;13.17;100.00;101853.47;5049552;28;20025;-80
2021/08/31 02:13:10;;;;;;;13.05;6.00;;;14.50;99.90;;;13.20;100.00;101841.00;5037870;28;20056;-79
2021/08/31 02:15:37;;;;;;;14.02;5.97;;;14.40;99.90;;;13.19;100.00;101833.97;5028445;28;20954;-79
2021/08/31 02:18:04;;;;;;;10.05;5.82;;;14.50;99.90;;;13.19;100.00;101836.63;5033054;28;20075;-79
2021/08/31 02:20:30;;;;;;;10.45;5.72;;;14.60;99.90;;;13.23;100.00;101846.16;5042839;28;20017;-79
2021/08/31 02:22:59;;;;;;;10.73;5.63;;;14.60;99.90;;;13.27;100.00;101844.25;5033811;28;20037;-79
2021/08/31 02:25:25;;;;;;;12.57;5.63;;;14.60;99.90;;;13.28;100.00;101838.03;5032148;28;20035;-79
2021/08/31 02:27:51;;;;;;;12.15;6.15;;;14.70;99.90;;;13.28;100.00;101840.69;5039130;28;20036;-79
2021/08/31 02:30:17;;;;;;;14.90;5.47;;;14.70;99.90;;;13.28;100.00;101838.03;5042469;28;20087;-79
2021/08/31 02:32:47;;;;;;;15.27;6.28;;;14.60;99.90;;;13.23;100.00;101829.44;5050541;28;20048;-79
2021/08/31 02:35:16;;;;;;;11.18;5.20;;;14.50;99.90;;;13.23;100.00;101826.78;5034876;28;20036;-79
2021/08/31 02:37:42;;;;;;;11.75;5.47;;;14.60;99.90;;;13.19;100.00;101878.94;5034842;28;20049;-79
2021/08/31 02:40:10;;;;;;;13.00;5.88;;;14.50;99.90;;;13.10;100.00;101905.75;5034714;28;20033;-79
2021/08/31 02:42:36;;;;;;;9.50;5.60;;;14.50;99.90;;;13.10;100.00;101877.50;5030434;28;20492;-79
2021/08/31 02:45:04;;;;;;;9.60;5.45;;;14.50;99.90;;;13.12;100.00;101866.88;5025505;28;20414;-79
2021/08/31 02:47:31;;;;;;;14.82;6.35;;;14.60;99.90;;;13.18;100.00;101871.09;5042046;28;20035;-79
2021/08/31 02:49:57;;;;;;;13.05;5.43;;;14.60;99.90;;;13.20;100.00;101864.81;5047924;28;20017;-79
2021/08/31 02:52:23;;;;;;;9.00;5.70;;;14.60;99.90;;;13.25;100.00;101865.47;5034416;28;20110;-79
2021/08/31 02:54:49;;;;;;;9.63;6.00;;;14.60;99.90;;;13.22;100.00;101847.09;5034566;28;20468;-79
2021/08/31 02:57:15;;;;;;;18.00;5.55;;;14.60;99.90;;;13.13;100.00;101839.50;5022677;28;20051;-79
2021/08/31 02:59:41;;;;;;;11.20;5.22;;;14.50;99.90;;;13.01;100.00;101837.38;5023835;28;20035;-79
2021/08/31 03:02:07;;;;;;;12.95;5.75;;;14.40;99.90;;;12.92;100.00;101830.66;5048152;28;20509;-79
2021/08/31 03:04:41;;;;;;;16.45;5.88;;;14.30;99.90;;;12.94;100.00;101826.16;5041811;28;20043;-79
2021/08/31 03:07:10;;;;;;;13.30;6.65;;;14.30;99.90;;;12.88;100.00;101826.41;5018343;28;20094;-79
2021/08/31 03:09:37;;;;;;;13.90;6.18;;;14.30;99.90;;;12.80;100.00;101816.13;5051384;28;20025;-79
2021/08/31 03:12:04;;;;;;;9.77;5.97;;;14.20;99.90;;;12.81;100.00;101824.94;5059084;28;20504;-79
2021/08/31 03:14:30;;;;;;;10.98;5.65;;;14.20;99.90;;;12.73;100.00;101804.06;5041267;28;20435;-79
2021/08/31 03:16:57;;;;;;;13.30;6.38;;;14.10;99.90;;;12.68;100.00;101795.47;5014315;28;20097;-79
2021/08/31 03:19:25;;;;;;;10.43;5.93;;;14.00;99.90;;;12.68;100.00;101806.88;5042113;28;20028;-79
2021/08/31 03:21:59;;;;;;;13.25;5.90;;;14.00;99.90;;;12.63;100.00;101807.97;5046723;28;20036;-79
2021/08/31 03:24:28;;;;;;;11.57;5.82;;;14.00;99.90;;;12.64;100.00;101820.28;5007661;28;20032;-79
2021/08/31 03:26:54;;;;;;;13.30;5.95;;;14.00;99.90;;;12.61;100.00;101812.44;5027990;28;20148;-79
2021/08/31 03:29:21;;;;;;;10.07;6.30;;;14.00;99.90;;;12.69;100.00;101826.25;5027468;28;20032;-78
2021/08/31 03:31:48;;;;;;;10.50;6.07;;;14.10;99.90;;;12.75;100.00;101818.09;5024414;28;20032;-79
2021/08/31 03:34:14;;;;;;;11.65;6.10;;;14.20;99.90;;;12.76;100.00;101833.00;5014079;28;20429;-79
2021/08/31 03:36:40;;;;;;;11.07;6.53;;;14.20;99.90;;;12.83;100.00;101845.09;5034282;28;20047;-79
2021/08/31 03:39:07;;;;;;;9.35;6.05;;;14.20;99.90;;;12.88;100.00;101848.41;5049479;28;20485;-79
2021/08/31 03:41:33;;;;;;;11.43;5.85;;;14.30;99.90;;;12.91;100.00;101848.31;5033804;28;20036;-79
2021/08/31 03:43:59;;;;;;;9.85;5.78;;;14.30;99.90;;;12.93;100.00;101857.00;5041378;28;20029;-79
2021/08/31 03:46:25;;;;;;;10.90;5.88;;;14.30;99.90;;;12.94;100.00;101849.97;5023568;28;20059;-79
2021/08/31 03:48:51;;;;;;;9.13;5.43;;;14.40;99.90;;;12.92;100.00;101847.38;5042155;28;20031;-79
2021/08/31 03:51:17;;;;;;;15.02;5.68;;;14.30;99.90;;;12.95;100.00;101842.88;5017734;28;20269;-79
2021/08/31 03:53:44;;;;;;;12.63;5.80;;;14.30;99.90;;;12.97;100.00;101855.13;5031509;28;20028;-79
2021/08/31 03:56:10;;;;;;;10.75;6.25;;;14.30;99.90;;;12.94;100.00;101842.03;5050923;28;20407;-79
2021/08/31 03:58:36;;;;;;;10.93;6.00;;;14.30;99.90;;;12.98;100.00;101854.22;5021596;28;20495;-79
2021/08/31 04:01:02;;;;;;;10.50;6.05;;;14.40;99.90;;;12.99;100.00;101855.91;5052629;28;20036;-79
2021/08/31 04:03:28;;;;;;;11.38;6.47;;;14.40;99.90;;;12.95;100.00;101840.25;5041866;28;20419;-79
2021/08/31 04:05:54;;;;;;;12.55;6.15;;;14.30;99.90;;;12.92;100.00;101847.38;5037879;28;20054;-79
2021/08/31 04:08:20;;;;;;;9.38;5.50;;;14.30;99.90;;;12.91;100.00;101853.59;5042040;28;20544;-79
2021/08/31 04:10:46;;;;;;;12.02;6.03;;;14.30;99.90;;;12.88;100.00;101845.75;5015666;28;20029;-80
2021/08/31 04:13:14;;;;;;;12.75;5.63;;;14.30;99.90;;;12.86;100.00;101842.31;5037686;28;20017;-79
2021/08/31 04:15:40;;;;;;;12.35;6.35;;;14.30;99.90;;;12.99;100.00;101858.56;5028953;28;20035;-79
2021/08/31 04:18:06;;;;;;;12.48;5.63;;;14.40;99.90;;;13.06;100.00;101910.28;5040888;28;20132;-78
2021/08/31 04:20:32;;;;;;;11.30;7.05;;;14.50;99.90;;;13.14;100.00;101876.47;5018399;28;20489;-79
2021/08/31 04:22:59;;;;;;;10.60;6.13;;;14.50;99.90;;;13.20;100.00;101866.59;5030470;28;20060;-79
2021/08/31 04:25:25;;;;;;;16.55;6.30;;;14.60;99.90;;;13.21;100.00;101873.59;5031563;28;20476;-79
2021/08/31 04:27:51;;;;;;;12.63;5.85;;;14.60;99.90;;;13.26;100.00;101882.19;5032095;28;20033;-79
2021/08/31 04:30:17;;;;;;;14.93;5.78;;;14.60;99.90;;;13.25;100.00;101867.25;5005701;28;20102;-79
2021/08/31 04:32:43;;;;;;;11.82;5.75;;;14.60;99.90;;;13.33;100.00;101883.72;5026971;28;20025;-79
2021/08/31 04:35:09;;;;;;;12.45;6.13;;;14.60;99.90;;;13.29;100.00;101880.34;5030423;28;20036;-79
2021/08/31 04:37:35;;;;;;;17.40;5.93;;;14.70;99.90;;;13.37;100.00;101892.38;5019194;28;20060;-79
2021/08/31 04:40:05;;;;;;;13.73;6.38;;;14.70;99.90;;;13.27;100.00;101879.50;5041954;28;20077;-78
2021/08/31 04:42:31;;;;;;;10.07;6.43;;;14.70;99.90;;;13.28;100.00;101875.06;5040117;28;20039;-78
2021/08/31 04:44:57;;;;;;;10.95;6.00;;;14.60;99.90;;;13.28;100.00;101873.34;5016511;28;20032;-79
2021/08/31 04:47:23;;;;;;;13.43;6.15;;;14.60;99.90;;;13.26;100.00;101877.78;5024094;28;20070;-79
2021/08/31 04:49:49;;;;;;;13.05;6.03;;;14.70;99.90;;;13.32;100.00;101877.56;5031108;28;20492;-78
2021/08/31 04:52:16;;;;;;;9.02;5.70;;;14.70;99.90;;;13.39;100.00;101886.13;5040449;28;20051;-79
2021/08/31 04:54:42;;;;;;;11.05;5.97;;;14.70;99.90;;;13.34;100.00;101873.06;5041122;28;20024;-78
2021/08/31 04:57:08;;;;;;;8.20;5.65;;;14.70;99.90;;;13.38;100.00;101891.47;5038155;28;20045;-80
2021/08/31 04:59:34;;;;;;;12.63;5.57;;;14.70;99.90;;;13.36;100.00;101873.00;5033921;28;20074;-79
2021/08/31 05:02:00;;;;;;;12.27;6.78;;;14.80;99.90;;;13.43;100.00;101884.22;5036534;28;20024;-79
2021/08/31 05:04:29;;;;;;;9.43;5.95;;;14.80;99.90;;;13.43;100.00;101882.41;5018116;28;20568;-79
2021/08/31 05:06:56;;;;;;;9.82;5.60;;;14.80;99.90;;;13.41;100.00;101875.47;5019259;28;20035;-79
2021/08/31 05:09:22;;;;;;;13.80;6.30;;;14.70;99.90;;;13.40;100.00;101879.91;5036444;28;20020;-79
2021/08/31 05:11:51;;;;;;;13.93;6.05;;;14.80;99.90;;;13.47;100.00;101881.38;5037818;28;20115;-79
2021/08/31 05:14:17;;;;;;;10.40;5.95;;;14.80;99.90;;;13.50;100.00;101883.91;5051996;28;20332;-79
2021/08/31 05:16:43;;;;;;;12.93;5.93;;;14.80;99.90;;;13.43;100.00;101873.63;5045568;28;20051;-78
2021/08/31 05:19:10;;;;;;;13.88;5.93;;;14.80;99.90;;;13.43;100.00;101873.63;5037073;28;20404;-78
2021/08/31 05:21:36;;;;;;;9.93;5.78;;;14.80;99.90;;;13.47;100.00;101877.88;5034399;28;20033;-79
2021/08/31 05:24:05;;;;;;;14.20;6.25;;;14.80;99.90;;;13.45;100.00;101880.56;5029143;28;20033;-79
2021/08/31 05:26:31;;;;;;;11.05;5.85;;;14.80;99.90;;;13.46;100.00;101874.38;5017028;28;20026;-79
2021/08/31 05:28:57;;;;;;;19.25;6.30;;;14.80;99.90;;;13.48;100.00;101880.47;5033888;28;20020;-79
2021/08/31 05:31:23;;;;;;;9.07;5.60;;;14.80;99.90;;;13.34;100.00;101865.13;5053888;28;20488;-79
2021/08/31 05:33:49;;;;;;;11.73;5.63;;;14.80;99.90;;;13.37;100.00;101869.47;5016514;28;20040;-79
2021/08/31 05:36:15;;;;;;;10.30;5.95;;;14.80;99.90;;;13.33;100.00;101874.00;5033436;28;20032;-81
2021/08/31 05:38:44;;;;;;;14.55;5.88;;;14.70;99.90;;;13.33;100.00;101879.28;5021216;28;20503;-79
2021/08/31 05:41:10;;;;;;;11.18;5.47;;;14.80;99.90;;;13.37;100.00;101868.56;5036347;28;20029;-79
2021/08/31 05:43:36;;;;;;;11.10;4.97;;;14.70;99.90;;;13.36;100.00;101877.44;5024077;28;20032;-79
2021/08/31 05:46:02;;;;;;;10.52;5.03;;;14.70;99.90;;;13.38;100.00;101876.47;5018530;28;20027;-79
2021/08/31 05:48:28;;;;;;;8.05;4.78;;;14.80;99.90;;;13.48;100.00;101893.69;5028345;28;20075;-79
2021/08/31 05:50:54;;;;;;;7.90;4.93;;;14.80;99.90;;;13.52;100.00;101894.44;5017281;28;20021;-79
2021/08/31 05:53:22;;;;;;;10.85;5.00;;;14.90;99.90;;;13.62;100.00;101906.34;5029771;28;20039;-78
2021/08/31 05:55:48;;;;;;;14.10;5.93;;;14.90;99.90;;;13.56;100.00;101898.66;5027945;28;20392;-79
2021/08/31 05:58:15;;;;;;;9.80;5.05;;;15.00;99.90;;;13.64;100.00;101909.81;5034285;28;20039;-79
2021/08/31 06:00:41;;;;;;;10.88;4.97;;;15.00;99.90;;;13.64;100.00;101907.16;5032996;28;20138;-79
2021/08/31 06:03:07;;;;;;;9.35;5.00;;;14.90;99.90;;;13.60;100.00;101949.69;5051680;28;20059;-79
2021/08/31 06:05:33;;;;;;;9.23;4.32;;;14.90;99.90;;;13.51;100.00;101906.78;5027300;28;21050;-78
2021/08/31 06:07:59;;;;;;;7.93;4.55;;;14.90;99.90;;;13.51;100.00;101892.72;5042538;28;20040;-78
2021/08/31 06:10:25;;;;;;;14.32;4.57;;;14.80;99.90;;;13.59;100.00;101885.31;5026815;28;20146;-79
2021/08/31 06:12:51;;;;;;;10.35;4.50;;;14.80;99.90;;;13.52;100.00;101889.16;5045300;28;20055;-79
2021/08/31 06:15:17;;;;;;;12.52;4.60;;;14.80;99.90;;;13.55;100.00;101889.03;5024568;28;20047;-78
2021/08/31 06:17:43;;;;;;;8.18;4.22;;;14.90;99.90;;;13.57;100.00;101903.06;5043785;28;21700;-79
2021/08/31 06:20:10;;;;;;;11.70;4.55;;;14.90;99.90;;;13.55;100.00;101886.38;5036270;28;22561;-79
2021/08/31 06:22:36;;;;;;;10.75;4.13;;;15.00;99.90;;;13.61;100.00;101890.56;5032073;28;20044;-79
2021/08/31 06:25:03;;;;;;;9.43;4.78;;;15.00;99.90;;;13.58;100.00;101883.59;5028410;28;20028;-79
2021/08/31 06:27:29;;;;;;;12.27;5.30;;;15.00;99.90;;;13.72;100.00;101898.91;5059337;28;20043;-79
2021/08/31 06:29:55;;;;;;;10.20;4.18;;;15.00;99.90;;;13.66;100.00;101886.78;5034043;28;20036;-78
2021/08/31 06:32:21;;;;;;;9.23;4.50;;;15.10;99.90;;;13.70;100.00;101885.75;5036385;28;20021;-78
2021/08/31 06:34:47;;;;;;;12.73;4.82;;;15.00;99.90;;;13.67;100.00;101888.53;5051454;28;20028;-79
2021/08/31 06:37:13;;;;;;;12.85;4.82;;;15.00;99.90;;;13.59;100.00;101881.81;5031381;28;20553;-79
2021/08/31 06:39:39;;;;;;;10.77;4.80;;;15.00;99.90;;;13.70;100.00;101891.03;5044535;28;20032;-79
2021/08/31 06:42:05;;;;;;;10.15;4.45;;;15.20;99.90;;;14.02;100.00;101919.75;5043706;28;20115;-78
2021/08/31 06:44:31;;;;;;;9.40;4.03;;;15.30;99.90;;;13.93;100.00;101911.28;5042164;28;20041;-78
2021/08/31 06:46:57;;;;;;;8.52;4.18;;;15.40;99.90;;;14.23;99.21;101933.84;5025527;28;20024;-79
2021/08/31 06:49:23;;;;;;;7.75;4.18;;;15.70;99.90;;;14.23;98.21;101924.13;5033115;28;20090;-79
2021/08/31 06:51:49;;;;;;;9.25;4.57;;;15.70;99.90;;;14.50;98.15;101943.28;5018174;28;20036;-79
2021/08/31 06:54:16;;;;;;;8.38;4.18;;;16.00;99.90;;;14.92;96.29;102008.63;5042016;28;20027;-79
2021/08/31 06:56:42;;;;;;;15.93;4.90;;;16.20;99.90;;;14.97;95.09;102006.63;5014921;28;20048;-79
2021/08/31 06:59:08;;;;;;;8.43;3.97;;;16.30;99.90;;;14.81;96.06;102036.53;5025352;28;20158;-79
2021/08/31 07:01:35;;;;;;;12.00;4.38;;;16.20;99.90;;;14.70;95.39;101984.84;5021230;28;20166;-79
2021/08/31 07:04:08;;;;;;;8.50;4.80;;;16.20;99.90;;;14.68;96.91;101988.47;5036451;28;20020;-79
2021/08/31 07:06:34;;;;;;;8.52;4.03;;;16.20;99.90;;;14.89;95.92;102011.41;5015531;28;20025;-79
2021/08/31 07:09:01;;;;;;;11.43;4.07;;;16.50;99.90;;;15.43;92.99;102046.13;5033250;28;20187;-79
2021/08/31 07:11:27;;;;;;;8.27;3.95;;;16.90;99.90;;;15.90;90.62;102071.44;5033482;28;20111;-79
2021/08/31 07:13:54;;;;;;;12.70;4.03;;;17.40;99.90;;;16.44;88.31;102093.59;5037962;28;20027;-79
2021/08/31 07:16:22;;;;;;;8.85;4.10;;;18.10;99.90;;;16.95;84.27;102083.06;5022433;28;20052;-79
2021/08/31 07:18:48;;;;;;;7.80;4.15;;;18.20;99.90;;;16.11;86.31;102005.75;5036002;28;20029;-78
2021/08/31 07:21:14;;;;;;;9.25;4.22;;;18.20;99.90;;;16.89;85.75;102075.41;5032766;28;20410;-79
2021/08/31 07:23:40;;;;;;;10.43;4.32;;;18.30;99.90;;;16.96;83.54;102093.63;5050879;28;20436;-78
2021/08/31 07:26:07;;;;;;;10.95;4.30;;;18.10;99.90;;;16.16;85.87;102004.59;5063272;28;20063;-79
2021/08/31 07:28:33;;;;;;;9.85;4.10;;;17.60;99.90;;;15.69;89.50;102063.50;5045877;28;20066;-79
2021/08/31 07:30:59;;;;;;;15.77;4.15;;;16.80;99.90;;;14.82;92.56;101956.94;5040339;28;20383;-79
2021/08/31 07:33:25;;;;;;;6.10;3.72;;;16.40;99.90;;;14.87;95.62;101988.53;5024136;28;20027;-79
2021/08/31 07:35:51;;;;;;;10.07;4.47;;;16.40;99.90;;;15.18;95.05;102049.91;5035003;28;20021;-79
2021/08/31 07:38:17;;;;;;;9.65;4.63;;;16.60;99.90;;;15.44;93.94;102089.44;5048530;28;20392;-79
2021/08/31 07:40:43;;;;;;;7.28;4.03;;;16.60;99.90;;;15.13;94.94;102021.84;5026755;28;20021;-79
2021/08/31 07:43:10;;;;;;;9.43;3.92;;;16.60;99.90;;;15.25;95.42;102012.44;5032175;28;20041;-79
2021/08/31 07:45:36;;;;;;;9.52;4.53;;;16.70;99.90;;;15.74;91.80;102065.97;5025999;28;20033;-79
2021/08/31 07:48:02;;;;;;;8.27;4.38;;;17.00;99.90;;;15.59;89.37;102040.94;5018239;28;20100;-78
2021/08/31 07:50:28;;;;;;;6.90;3.83;;;16.70;99.90;;;15.00;93.60;101992.34;5034776;28;20411;-79
2021/08/31 07:52:54;;;;;;;7.05;4.28;;;16.60;99.90;;;15.21;95.24;102024.16;5022832;28;20032;-79
2021/08/31 07:55:21;;;;;;;10.85;4.30;;;16.80;99.90;;;15.93;93.74;102087.22;5065601;28;20028;-79
2021/08/31 07:57:47;;;;;;;8.23;4.22;;;17.40;99.90;;;16.59;90.17;102100.81;5049986;28;20445;-79
2021/08/31 08:00:16;;;;;;;7.93;4.47;;;17.90;99.90;;;16.54;87.74;102068.28;5025702;28;20036;-79
2021/08/31 08:02:46;;;;;;;9.63;4.28;;;17.80;99.90;;;16.55;88.66;102069.13;5032207;28;20033;-79
2021/08/31 08:05:12;;;;;;;6.85;3.97;;;17.70;99.90;;;16.14;89.67;102046.31;5024125;28;20025;-79
2021/08/31 08:07:39;;;;;;;6.85;3.95;;;17.30;99.90;;;15.44;92.17;102000.06;5037096;28;20036;-79
2021/08/31 08:10:07;;;;;;;10.52;4.15;;;16.90;99.90;;;15.34;95.46;102001.44;5034070;28;20036;-79
2021/08/31 08:12:33;;;;;;;8.68;4.07;;;16.70;99.90;;;15.16;92.50;101985.44;5048060;28;20031;-79
2021/08/31 08:15:04;;;;;;;8.18;4.32;;;16.60;99.90;;;15.22;94.02;101986.94;5032180;28;20074;-79
2021/08/31 08:17:30;;;;;;;7.05;3.78;;;16.50;99.90;;;15.10;93.34;102104.22;5033013;28;20178;-78
2021/08/31 08:19:56;;;;;;;8.55;4.50;;;16.60;99.90;;;15.67;93.01;102147.66;5049625;28;20476;-79
2021/08/31 08:22:23;;;;;;;6.40;3.55;;;;;;;16.02;91.05;102203.66;5029515;28;20037;-79
2021/08/31 08:24:49;;;;;;;10.48;4.40;;;17.10;99.90;;;15.89;91.74;102122.81;5041358;28;20066;-79
2021/08/31 08:27:15;;;;;;;6.93;3.92;;;17.20;99.90;;;15.91;90.52;102228.06;5040725;28;20060;-79
2021/08/31 08:29:42;;;;;;;5.80;3.53;;;17.90;99.90;;;16.95;84.60;102219.66;5032572;28;20037;-79
2021/08/31 08:32:11;;;;;;;6.82;3.95;;;18.40;99.90;;;17.87;83.89;102262.00;5032024;28;20441;-78
2021/08/31 08:34:39;;;;;;;8.50;3.97;;;19.00;99.90;;;17.98;81.05;102218.78;5021347;28;20028;-79
2021/08/31 08:37:06;;;;;;;7.28;3.67;;;18.90;99.90;;;16.98;84.14;102088.25;5014271;28;20033;-79
2021/08/31 08:39:35;;;;;;;6.63;3.63;;;18.10;99.90;;;16.61;84.16;102072.34;5023847;28;20045;-79
2021/08/31 08:42:01;;;;;;;7.47;4.50;;;18.20;99.90;;;17.08;84.44;102081.47;5031109;28;20248;-79
2021/08/31 08:44:29;;;;;;;7.00;3.78;;;18.80;99.90;;;18.26;79.31;102137.28;5053225;28;20036;-79
2021/08/31 08:46:58;;;;;;;8.23;3.22;;;19.60;99.90;;;18.45;75.03;102121.97;5044655;28;20033;-78
2021/08/31 08:49:24;;;;;;;6.82;3.30;;;19.70;99.90;;;17.65;78.58;102051.81;5012369;28;20464;-79
2021/08/31 08:51:56;;;;;;;7.45;3.60;;;19.60;99.90;;;18.27;77.06;102112.34;5054017;28;20054;-79
2021/08/31 08:54:23;;;;;;;5.43;3.42;;;19.40;99.90;;;17.82;78.19;102061.56;5038315;28;20057;-79
2021/08/31 08:56:53;;;;;;;5.40;3.30;;;19.00;99.90;;;16.91;79.32;101993.72;5040781;28;20481;-79
2021/08/31 08:59:21;;;;;;;7.70;3.70;;;18.30;99.90;;;16.88;83.30;102023.16;5053146;28;20028;-78
2021/08/31 09:02:10;;;;;;;5.75;3.53;;;18.50;99.90;;;17.10;81.89;102037.03;5013642;28;20476;-78
2021/08/31 09:05:05;;;;;;;5.72;3.67;;;18.60;99.90;;;16.46;80.62;101964.13;4987965;28;20058;-79
2021/08/31 09:07:55;;;;;;;6.60;3.30;;;18.00;99.90;;;16.28;81.35;101975.69;5010207;28;20040;-79
2021/08/31 09:10:45;;;;;;;6.00;3.58;;;17.70;99.90;;;15.76;82.36;101937.47;5050793;28;20396;-78
2021/08/31 09:13:12;;;;;;;8.57;3.55;;;17.30;99.90;;;15.75;83.24;101946.41;5006962;28;20075;-78
2021/08/31 09:15:41;;;;;;;7.25;3.65;;;17.80;99.90;;;17.04;81.58;102050.69;5000820;28;20044;-79
2021/08/31 09:18:46;;;;;;;5.80;3.47;;;18.60;99.90;;;17.37;78.82;102044.47;5001558;28;20056;-79
2021/08/31 09:22:05;;;;;;;4.50;2.97;;;18.60;99.90;;;17.05;78.84;102024.91;5011908;28;20049;-79
2021/08/31 09:24:37;;;;;;;10.63;4.20;;;18.30;99.90;;;16.95;78.93;102021.88;5003469;28;20044;-79
2021/08/31 09:28:10;;;;;;;9.75;3.60;;;18.00;99.90;;;16.20;78.88;101970.75;4999991;28;20119;-78
2021/08/31 09:31:44;;;;;;;8.13;3.95;;;17.60;99.90;;;15.96;79.73;102077.31;5004293;28;20107;-78
2021/08/31 09:34:52;;;;;;;5.05;3.05;;;17.30;99.90;;;16.03;81.55;102026.53;5017611;28;20039;-78
2021/08/31 09:38:02;;;;;;;5.32;3.00;;;17.40;99.90;;;16.11;79.81;101998.66;4994393;28;20041;-78
2021/08/31 09:41:44;;;;;;;6.30;2.90;;;17.60;99.90;;;16.29;80.22;102007.50;5001335;28;20082;-79
2021/08/31 09:45:38;;;;;;;6.88;3.72;;;17.70;99.90;;;16.54;79.50;102019.53;5012264;28;20050;-79
2021/08/31 09:48:17;;;;;;;11.27;3.63;;;18.00;99.90;;;17.02;78.87;102045.44;5004954;28;20094;-79
2021/08/31 09:51:21;;;;;;;7.05;3.67;;;18.30;99.90;;;16.97;77.70;102027.97;5000231;28;20330;-78
2021/08/31 09:54:40;;;;;;;6.50;3.92;;;18.50;99.90;;;17.06;74.67;102018.63;5016251;28;20504;-78
2021/08/31 09:57:39;;;;;;;6.35;3.45;;;18.20;99.90;;;16.65;76.22;101992.38;5005426;28;20039;-78
2021/08/31 10:00:44;;;;;;;5.25;3.00;;;18.40;99.90;;;17.42;75.34;102059.25;4996380;28;20041;-78
2021/08/31 10:03:51;;;;;;;7.32;3.45;;;18.60;99.90;;;17.33;72.59;102035.78;4994785;28;20059;-79
2021/08/31 10:07:07;;;;;;;7.03;3.65;;;18.50;99.90;;;17.40;74.84;102061.13;5004801;28;20036;-78
2021/08/31 10:10:19;;;;;;;5.47;3.63;;;18.30;99.90;;;17.13;75.12;102009.41;5011774;28;20114;-79
2021/08/31 10:13:34;;;;;;;6.15;2.65;;;18.50;99.90;;;17.12;71.56;102013.00;5002683;28;20044;-79
2021/08/31 10:20:26;;;;;;;5.82;3.30;;;19.10;99.90;;;18.16;72.54;102067.63;5005995;28;20036;-79
2021/08/31 10:23:46;;;;;;;10.43;3.70;;;19.50;99.90;;;18.41;72.91;102061.75;5013590;28;20082;-78